createdAt,value
2023-03-01T00:00:50.520Z,116.80
2023-03-01T00:05:52.076Z,77.00
2023-03-01T00:11:11.675Z,92.80
2023-03-01T00:16:16.559Z,87.90
2023-03-01T00:21:18.990Z,103.20
2023-03-01T00:26:23.802Z,125.70
2023-03-01T00:31:28.077Z,129.70
2023-03-01T00:36:37.948Z,120.50
2023-03-01T00:41:41.428Z,91.80
2023-03-01T00:46:42.985Z,89.70
2023-03-01T00:51:44.697Z,79.70
2023-03-01T00:56:46.534Z,64.40
2023-03-01T01:01:48.072Z,60.80
2023-03-01T01:06:49.696Z,58.90
2023-03-01T01:11:52.312Z,59.80
2023-03-01T01:16:53.820Z,53.30
2023-03-01T01:21:55.343Z,60.40
2023-03-01T01:26:57.857Z,72.00
2023-03-01T01:32:01.189Z,71.50
2023-03-01T01:37:03.924Z,65.40
2023-03-01T01:42:05.667Z,64.00
2023-03-01T01:47:26.033Z,59.90
2023-03-01T01:52:35.990Z,60.90
2023-03-01T01:57:46.050Z,63.90
2023-03-01T02:02:52.964Z,67.70
2023-03-01T02:07:54.953Z,69.00
2023-03-01T02:12:57.170Z,69.20
2023-03-01T02:17:58.995Z,59.00
2023-03-01T02:23:01.450Z,60.20
2023-03-01T02:28:16.721Z,59.50
2023-03-01T02:33:18.521Z,48.20
2023-03-01T02:38:20.853Z,48.70
2023-03-01T02:43:25.502Z,50.80
2023-03-01T02:48:27.431Z,43.90
2023-03-01T02:53:50.205Z,48.50
2023-03-01T02:58:52.666Z,60.00
2023-03-01T03:03:54.521Z,77.80
2023-03-01T03:08:56.253Z,67.20
2023-03-01T03:13:58.995Z,75.80
2023-03-01T03:19:06.093Z,59.80
2023-03-01T03:24:07.851Z,55.10
2023-03-01T03:29:09.541Z,53.50
2023-03-01T03:34:19.298Z,47.80
2023-03-01T03:39:21.326Z,47.40
2023-03-01T03:44:22.906Z,56.50
2023-03-01T03:49:24.515Z,61.60
2023-03-01T03:54:26.085Z,57.90
2023-03-01T03:59:28.078Z,58.50
2023-03-01T04:04:29.649Z,53.00
2023-03-01T04:09:31.194Z,42.60
2023-03-01T04:14:32.695Z,45.40
2023-03-01T04:19:37.070Z,52.10
2023-03-01T04:24:38.962Z,54.00
2023-03-01T04:29:40.512Z,52.00
2023-03-01T04:34:42.446Z,54.00
2023-03-01T04:39:46.637Z,41.10
2023-03-01T04:44:48.234Z,42.60
2023-03-01T04:49:49.726Z,44.60
2023-03-01T04:54:51.498Z,48.40
2023-03-01T04:59:53.062Z,43.20
2023-03-01T05:04:58.833Z,46.40
2023-03-01T05:10:00.365Z,36.10
2023-03-01T05:15:01.924Z,46.60
2023-03-01T05:20:08.110Z,55.10
2023-03-01T05:25:10.042Z,43.80
2023-03-01T05:30:15.164Z,41.70
2023-03-01T05:35:18.838Z,47.30
2023-03-01T05:40:25.058Z,42.30
2023-03-01T05:45:28.640Z,46.90
2023-03-01T05:50:34.046Z,37.50
2023-03-01T05:55:37.417Z,44.90
2023-03-01T06:00:39.162Z,42.00
2023-03-01T06:05:41.672Z,38.70
2023-03-01T06:10:43.354Z,25.50
2023-03-01T06:15:45.266Z,45.60
2023-03-01T06:20:54.006Z,42.40
2023-03-01T06:25:56.249Z,40.20
2023-03-01T06:30:57.829Z,48.70
2023-03-01T06:35:59.391Z,42.50
2023-03-01T06:41:00.920Z,38.90
2023-03-01T06:46:06.382Z,41.80
2023-03-01T06:51:07.931Z,42.00
2023-03-01T06:56:09.480Z,43.40
2023-03-01T07:01:11.031Z,43.90
2023-03-01T07:06:13.229Z,33.50
2023-03-01T07:11:15.340Z,38.70
2023-03-01T07:16:16.957Z,38.40
2023-03-01T07:21:18.555Z,34.50
2023-03-01T07:26:20.339Z,36.80
2023-03-01T07:31:22.095Z,27.80
2023-03-01T07:36:24.431Z,32.10
2023-03-01T07:41:26.207Z,33.10
2023-03-01T07:46:28.142Z,29.90
2023-03-01T07:51:29.694Z,33.10
2023-03-01T07:56:31.500Z,30.40
2023-03-01T08:01:33.822Z,28.60
2023-03-01T08:06:36.736Z,30.30
2023-03-01T08:11:38.739Z,33.10
2023-03-01T08:16:40.969Z,27.60
2023-03-01T08:21:42.724Z,23.90
2023-03-01T08:26:44.847Z,24.10
2023-03-01T08:31:46.483Z,25.10
2023-03-01T08:36:48.465Z,18.40
2023-03-01T08:41:49.988Z,20.90
2023-03-01T08:46:53.565Z,21.90
2023-03-01T08:51:55.870Z,18.60
2023-03-01T08:57:00.370Z,20.20
2023-03-01T09:02:02.631Z,19.60
2023-03-01T09:07:04.751Z,19.00
2023-03-01T09:12:06.897Z,18.20
2023-03-01T09:17:11.034Z,16.90
2023-03-01T09:22:12.970Z,16.30
2023-03-01T09:27:15.950Z,14.60
2023-03-01T09:32:17.587Z,16.50
2023-03-01T09:37:19.109Z,12.70
2023-03-01T09:42:20.626Z,12.70
2023-03-01T09:47:24.507Z,13.10
2023-03-01T09:52:40.062Z,13.20
2023-03-01T09:57:54.603Z,10.20
2023-03-01T10:03:05.673Z,15.40
2023-03-01T10:08:33.578Z,17.30
2023-03-01T10:13:50.343Z,15.10
2023-03-01T10:18:59.532Z,15.10
2023-03-01T10:24:12.692Z,13.20
2023-03-01T10:29:15.073Z,12.50
2023-03-01T10:34:35.890Z,11.80
2023-03-01T10:39:37.885Z,10.40
2023-03-01T10:44:48.172Z,10.60
2023-03-01T10:50:23.631Z,11.50
2023-03-01T10:55:31.429Z,10.80
2023-03-01T11:00:33.835Z,11.00
2023-03-01T11:05:35.435Z,9.50
2023-03-01T11:10:37.810Z,7.90
2023-03-01T11:15:39.664Z,11.40
2023-03-01T11:20:42.621Z,9.10
2023-03-01T11:25:57.679Z,7.50
2023-03-01T11:31:18.135Z,9.00
2023-03-01T11:36:19.959Z,10.20
2023-03-01T11:41:27.240Z,8.70
2023-03-01T11:46:47.021Z,9.10
2023-03-01T11:52:10.097Z,8.80
2023-03-01T11:57:43.786Z,9.40
2023-03-01T12:03:15.583Z,9.50
2023-03-01T12:08:36.222Z,11.90
2023-03-01T12:14:14.579Z,9.80
2023-03-01T12:19:18.862Z,11.80
2023-03-01T12:24:26.635Z,12.20
2023-03-01T12:29:49.829Z,10.30
2023-03-01T12:35:13.628Z,14.80
2023-03-01T12:40:39.615Z,19.30
2023-03-01T12:46:03.177Z,12.80
2023-03-01T12:51:11.639Z,12.60
2023-03-01T12:56:17.920Z,9.40
2023-03-01T13:01:28.427Z,10.90
2023-03-01T13:06:43.655Z,11.80
2023-03-01T13:11:45.618Z,10.20
2023-03-01T13:16:50.410Z,11.30
2023-03-01T13:21:55.828Z,10.80
2023-03-01T13:27:12.199Z,11.30
2023-03-01T13:32:43.674Z,10.50
2023-03-01T13:37:47.305Z,14.20
2023-03-01T13:43:04.176Z,12.30
2023-03-01T13:48:36.241Z,11.20
2023-03-01T13:53:44.196Z,12.00
2023-03-01T13:59:00.834Z,14.40
2023-03-01T14:04:04.890Z,12.80
2023-03-01T14:09:19.611Z,14.20
2023-03-01T14:14:40.018Z,14.60
2023-03-01T14:19:45.940Z,13.00
2023-03-01T14:24:53.926Z,14.80
2023-03-01T14:29:58.541Z,14.50
2023-03-01T14:35:00.955Z,16.10
2023-03-01T14:40:05.286Z,17.00
2023-03-01T14:45:08.721Z,16.50
2023-03-01T14:50:22.267Z,16.10
2023-03-01T14:55:45.732Z,29.30
2023-03-01T15:00:58.863Z,17.50
2023-03-01T15:06:03.358Z,16.20
2023-03-01T15:11:14.410Z,15.80
2023-03-01T15:16:32.199Z,17.20
2023-03-01T15:21:37.127Z,18.10
2023-03-01T15:26:44.346Z,19.40
2023-03-01T15:31:59.921Z,18.40
2023-03-01T15:37:06.737Z,21.20
2023-03-01T15:42:34.582Z,22.70
2023-03-01T15:47:39.920Z,20.40
2023-03-01T15:52:44.079Z,24.60
2023-03-01T15:57:46.307Z,25.30
2023-03-01T16:02:47.883Z,23.70
2023-03-01T16:07:49.996Z,26.60
2023-03-01T16:12:53.686Z,25.90
2023-03-01T16:17:55.549Z,23.30
2023-03-01T16:23:01.545Z,24.90
2023-03-01T16:28:06.250Z,25.70
2023-03-01T16:33:26.958Z,21.40
2023-03-01T16:38:32.328Z,26.40
2023-03-01T16:43:33.864Z,25.20
2023-03-01T16:48:35.450Z,25.40
2023-03-01T16:53:39.053Z,30.10
2023-03-01T16:58:41.777Z,28.50
2023-03-01T17:03:44.825Z,50.90
2023-03-01T17:08:46.856Z,75.10
2023-03-01T17:13:49.104Z,71.10
2023-03-01T17:18:50.800Z,72.40
2023-03-01T17:23:57.446Z,90.90
2023-03-01T17:28:59.268Z,89.70
2023-03-01T17:34:01.722Z,61.00
2023-03-01T17:39:04.093Z,74.80
2023-03-01T17:44:05.633Z,81.10
2023-03-01T17:49:07.150Z,82.70
2023-03-01T17:54:09.061Z,69.00
2023-03-01T17:59:11.087Z,74.60
2023-03-01T18:04:13.069Z,89.90
2023-03-01T18:09:14.866Z,81.80
2023-03-01T18:14:16.393Z,80.10
2023-03-01T18:19:18.086Z,87.20
2023-03-01T18:24:19.907Z,111.80
2023-03-01T18:29:21.409Z,78.80
2023-03-01T18:34:23.960Z,82.60
2023-03-01T18:39:25.478Z,75.10
2023-03-01T18:44:27.024Z,64.00
2023-03-01T18:49:28.969Z,61.30
2023-03-01T18:54:30.945Z,59.70
2023-03-01T18:59:33.457Z,54.60
2023-03-01T19:04:34.985Z,53.90
2023-03-01T19:09:36.717Z,58.50
2023-03-01T19:14:38.226Z,48.50
2023-03-01T19:19:39.808Z,55.90
2023-03-01T19:24:41.317Z,58.30
2023-03-01T19:29:42.803Z,67.80
2023-03-01T19:34:44.301Z,57.20
2023-03-01T19:39:47.458Z,56.60
2023-03-01T19:44:49.411Z,67.50
2023-03-01T19:49:50.968Z,63.10
2023-03-01T19:54:58.140Z,69.30
2023-03-01T20:00:06.667Z,90.00
2023-03-01T20:05:10.134Z,128.50
2023-03-01T20:10:12.296Z,81.60
2023-03-01T20:15:13.984Z,92.10
2023-03-01T20:20:16.437Z,122.00
2023-03-01T20:25:18.872Z,113.00
2023-03-01T20:30:20.418Z,122.30
2023-03-01T20:35:24.542Z,104.20
2023-03-01T20:40:33.769Z,85.40
2023-03-01T20:45:37.983Z,87.50
2023-03-01T20:50:48.451Z,78.10
2023-03-01T20:55:50.409Z,84.00
2023-03-01T21:00:52.546Z,86.90
2023-03-01T21:06:02.405Z,88.70
2023-03-01T21:11:06.351Z,83.60
2023-03-01T21:16:14.130Z,74.20
2023-03-01T21:21:19.769Z,79.70
2023-03-01T21:26:24.264Z,83.50
2023-03-01T21:31:28.892Z,85.60
2023-03-01T21:36:34.659Z,75.20
2023-03-01T21:41:38.027Z,66.70
2023-03-01T21:46:40.070Z,63.00
2023-03-01T21:51:41.665Z,65.90
2023-03-01T21:56:44.718Z,53.30
2023-03-01T22:01:50.418Z,50.60
2023-03-01T22:06:54.409Z,67.80
2023-03-01T22:12:02.629Z,57.90
2023-03-01T22:17:04.385Z,61.10
2023-03-01T22:22:05.895Z,88.70
2023-03-01T22:27:07.865Z,73.20
2023-03-01T22:32:10.138Z,133.10
2023-03-01T22:37:11.887Z,101.10
2023-03-01T22:42:13.636Z,94.60
2023-03-01T22:47:15.500Z,90.00
2023-03-01T22:52:17.150Z,99.50
2023-03-01T22:57:18.673Z,75.20
2023-03-01T23:02:20.414Z,82.50
2023-03-01T23:07:22.930Z,73.70
2023-03-01T23:12:24.770Z,72.50
2023-03-01T23:17:26.265Z,65.40
2023-03-01T23:22:30.951Z,71.90
2023-03-01T23:27:32.412Z,71.10
2023-03-01T23:32:40.488Z,60.60
2023-03-01T23:37:42.658Z,68.50
2023-03-01T23:42:44.492Z,83.90
2023-03-01T23:47:46.177Z,89.40
2023-03-01T23:52:47.818Z,73.30
2023-03-01T23:57:49.745Z,79.10
